• Join FlightAware (Why Join?)
  • Login
  • US Flag 
05:12PM EDT


 

Airport Tracker/Info


-or-


 

Live Flight TrackerFlight Track Log ✈ ASQ6115 ✈ 19-Apr-2014 ✈ KORD - KDAY

Flight Track Log - Related Links

Times and Time Zones

All times are in EDT time to prevent confusion due to time zone crossing. See the ASQ6115 flight status page for this flight to view local times or setup timezone preferences in your user account.

Time Position Orientation Groundspeed Altitude Reporting Facility
EDT Latitude Longitude Course Direction KTS MPH feet Rate Location/Type
02:45PM 41.9667 -87.8500 90° East 191 220 4,000  Level Chicago TRACON
02:45PM 41.9506 -87.7983 113° Southeast 203 234 5,300 2,460 Climbing Chicago Center
02:46PM 41.9331 -87.7028 104° East 259 298 8,000 2,700 Climbing Chicago Center
02:47PM 41.9358 -87.5850 88° East 291 335 11,000 2,220 Climbing Chicago Center
02:48PM 41.9423 -87.2586 95° East  Level FlightAware Approximate
02:48PM 41.9389 -87.4642 88° East 321 369 12,600  Level Chicago Center
02:49PM 41.9333 -87.0983 90° East  Level FlightAware Approximate
02:50PM 41.9667 -87.7730 90° East  Level FlightAware Approximate
02:50PM 41.9414 -87.3231 89° East 375 432 14,000  Level Chicago Center
02:51PM 41.9442 -87.1667 89° East 385 443 16,000 1,740 Climbing Chicago Center
02:52PM 41.9403 -87.0206 92° East 390 449 17,700 1,380 Climbing Chicago Center
02:53PM 41.9217 -86.8869 101° East 391 450 18,900 1,620 Climbing Chicago Center
02:54PM 41.9000 -86.7097 99° East 397 457 21,100 1,800 Climbing Chicago Center
02:55PM 41.8833 -86.5728 99° East 404 465 22,700 900 Climbing Chicago Center
02:56PM 41.8642 -86.4175 99° East 422 486 23,000 120 Climbing Chicago Center
02:57PM 41.8433 -86.2533 100° East 441 507 23,000  Level Chicago Center
02:58PM 41.7600 -86.0900 124° Southeast 449 517 23,000  Level Chicago Center
02:59PM 41.6767 -85.9703 133° Southeast 445 512 23,000  Level Chicago Center
03:00PM 41.5931 -85.8508 133° Southeast 444 511 23,000  Level Chicago Center
03:01PM 41.5094 -85.7319 133° Southeast 445 512 23,000  Level Chicago Center
03:02PM 41.4258 -85.6114 133° Southeast 446 513 23,000  Level Chicago Center
03:03PM 41.3242 -85.4681 133° Southeast 449 517 23,000  Level Chicago Center
03:04PM 41.2394 -85.3475 133° Southeast 449 517 23,000 -960 Level Chicago Center
03:05PM 41.1544 -85.2281 133° Southeast 449 517 21,100 -1,860 Descending Chicago Center
03:06PM 41.0703 -85.1094 133° Southeast 447 514 19,200 -1,740 Descending Chicago Center
03:07PM 40.9883 -84.9975 134° Southeast 432 497 17,600 -1,980 Descending Chicago Center
03:08PM 40.8950 -84.8686 134° Southeast 412 474 15,200 -1,320 Descending Chicago Center
03:09PM 40.8194 -84.7639 134° Southeast 399 459 15,000 -120 Descending Chicago Center
03:10PM 40.7425 -84.6589 134° Southeast 399 459 15,000 -60 Level Chicago Center
03:11PM 40.6667 -84.5558 134° Southeast 397 457 14,900 -720 Descending Chicago Center
03:12PM 40.6278 -84.5011 133° Southeast 382 440 13,900 -1,800 Descending Indianapolis Center
03:13PM 40.5736 -84.4303 135° Southeast 378 435 12,400 -1,980 Descending Indianapolis Center
03:13PM 40.5289 -84.4031 155° Southeast 362 417 11,500 -2,040 Descending Indianapolis Center
03:14PM 40.4625 -84.3683 158° South 367 422 10,300 -1,320 Descending Indianapolis Center
03:14PM 40.4294 -84.3489 156° South 358 412 10,100 -300 Descending Indianapolis Center
03:15PM 40.3678 -84.3517 182° South 361 415 10,000 -120 Descending Indianapolis Center
03:15PM 40.3286 -84.3664 196° South 339 390 10,000 -420 Level Indianapolis Center
03:16PM 40.2831 -84.3847 197° South 332 382 9,600 -1,200 Descending Indianapolis Center
03:16PM 40.2561 -84.3944 195° South 279 321 8,900 -1,860 Descending Indianapolis Center
03:17PM 40.2072 -84.4122 196° South 298 343 7,700 -1,920 Descending Indianapolis Center
03:17PM 40.1794 -84.4214 194° South 279 321 7,000 -1,800 Descending Indianapolis Center
03:18PM 40.1322 -84.4406 197° South 290 334 5,900 -1,800 Descending Indianapolis Center
03:18PM 40.1050 -84.4489 193° South 281 323 5,200 -1,740 Descending Indianapolis Center
03:19PM 40.0328 -84.4550 184° South 260 299 3,700 -1,140 Descending Indianapolis Center
03:20PM 39.9889 -84.4519 177° South 262 302 3,200 -660 Descending Indianapolis Center
03:20PM 39.9486 -84.4533 182° South 258 297 3,000 -120 Descending Indianapolis Center
03:21PM 39.9172 -84.4431 166° South 262 302 3,100 60 Climbing Indianapolis Center
03:21PM 39.8853 -84.4172 148° Southeast 256 295 3,100 -120 Level Indianapolis Center
03:22PM 39.8611 -84.3664 122° Southeast 254 292 3,000 -120 Descending Indianapolis Center
03:22PM 39.8539 -84.3378 108° East 244 281 3,000 -600 Level Indianapolis Center
03:23PM 39.8558 -84.2869 87° East 233 268 2,400 -1,020 Descending Indianapolis Center
03:23PM 39.8678 -84.2664 53° Northeast 155 178 1,900 -240 Descending Indianapolis Center
03:24PM 39.8839 -84.2319 59° Northeast 224 258 2,200 480 Climbing Indianapolis Center